Time;durP1;ratioP1;P1;durP2;ratioP2;P2;SDS_P1;SDS_P2;PMS_P1;PMS_P2;Temp;Humidity;BMP_temperature;BMP_pressure;BME280_temperature;BME280_humidity;BME280_pressure;Samples;Min_cycle;Max_cycle;Signal;HPM_P1;HPM_P2
2022/07/31 00:01:53;;;;;;;17.03;13.27;;;19.30;99.90;;;;;;5055322;28;20951;-73
2022/07/31 00:04:22;;;;;;;13.03;10.80;;;19.30;99.90;;;;;;5070487;28;20534;-75
2022/07/31 00:06:49;;;;;;;17.30;11.00;;;19.30;99.90;;;;;;5070641;28;20489;-74
2022/07/31 00:09:16;;;;;;;13.67;10.57;;;19.30;99.90;;;;;;5076031;28;20457;-75
2022/07/31 00:11:43;;;;;;;14.30;10.47;;;19.30;99.90;;;;;;5069436;28;20449;-73
2022/07/31 00:14:11;;;;;;;12.47;9.40;;;19.30;99.90;;;;;;5072631;28;20560;-75
2022/07/31 00:16:38;;;;;;;14.47;10.30;;;19.40;99.90;;;;;;5073023;28;21016;-73
2022/07/31 00:19:06;;;;;;;16.93;11.43;;;19.40;99.90;;;;;;5072957;28;20549;-74
2022/07/31 00:21:33;;;;;;;19.50;12.50;;;19.30;99.90;;;;;;5073540;28;20458;-74
2022/07/31 00:24:00;;;;;;;13.40;9.80;;;19.30;99.90;;;;;;5077420;28;20579;-75
2022/07/31 00:26:28;;;;;;;14.63;10.03;;;19.30;99.90;;;;;;5082414;28;20473;-74
2022/07/31 00:28:55;;;;;;;14.47;9.70;;;19.30;99.90;;;;;;5078331;28;20465;-74
2022/07/31 00:31:23;;;;;;;16.07;10.47;;;19.40;99.90;;;;;;5074181;28;20453;-75
2022/07/31 00:33:49;;;;;;;15.37;10.90;;;19.30;99.90;;;;;;5073475;28;20480;-74
2022/07/31 00:36:18;;;;;;;14.23;12.70;;;19.30;99.90;;;;;;5074118;28;20470;-73
2022/07/31 00:38:45;;;;;;;13.50;12.10;;;19.30;99.90;;;;;;5070098;28;20476;-74
2022/07/31 00:41:12;;;;;;;15.97;13.53;;;19.20;99.90;;;;;;5072445;28;20920;-74
2022/07/31 00:43:39;;;;;;;18.97;13.63;;;19.10;99.90;;;;;;5071098;28;20498;-75
2022/07/31 00:46:06;;;;;;;19.80;14.43;;;19.10;99.90;;;;;;5075184;28;20539;-74
2022/07/31 00:48:33;;;;;;;17.00;13.50;;;19.00;99.90;;;;;;5067038;28;20441;-73
2022/07/31 00:51:00;;;;;;;17.67;13.90;;;19.00;99.90;;;;;;5070768;28;20448;-74
2022/07/31 00:53:28;;;;;;;16.43;14.13;;;19.00;99.90;;;;;;5064226;28;20513;-73
2022/07/31 00:55:56;;;;;;;20.80;16.00;;;19.00;99.90;;;;;;5062945;28;20466;-73
2022/07/31 00:58:23;;;;;;;14.93;13.33;;;19.00;99.90;;;;;;5063385;28;20457;-73
2022/07/31 01:00:50;;;;;;;20.83;14.43;;;18.90;99.90;;;;;;5056048;28;20446;-74
2022/07/31 01:03:18;;;;;;;19.73;14.80;;;18.90;99.90;;;;;;5068715;28;20959;-75
2022/07/31 01:05:55;;;;;;;22.50;15.03;;;18.90;99.90;;;;;;5071927;28;20825;-74
2022/07/31 01:08:22;;;;;;;20.83;15.20;;;18.80;99.90;;;;;;5059836;28;20967;-74
2022/07/31 01:10:57;;;;;;;23.10;18.63;;;18.80;99.90;;;;;;5068964;28;20533;-75
2022/07/31 01:13:32;;;;;;;15.90;14.40;;;18.80;99.90;;;;;;5057786;28;20508;-75
2022/07/31 01:16:01;;;;;;;19.20;15.43;;;18.80;99.90;;;;;;5040461;28;20434;-73
2022/07/31 01:18:31;;;;;;;15.83;13.80;;;18.80;99.90;;;;;;5058419;28;21000;-75
2022/07/31 01:21:07;;;;;;;16.50;14.80;;;18.80;99.90;;;;;;5059799;28;20461;-74
2022/07/31 01:24:07;;;;;;;22.60;17.57;;;18.90;99.90;;;;;;5072464;28;20464;-73
2022/07/31 01:26:47;;;;;;;17.10;15.40;;;19.00;99.90;;;;;;5062320;28;20858;-74
2022/07/31 01:29:24;;;;;;;21.73;17.73;;;19.00;99.90;;;;;;5048161;28;20455;-74
2022/07/31 01:31:58;;;;;;;21.10;18.93;;;19.00;99.90;;;;;;5060701;28;20437;-72
2022/07/31 01:34:31;;;;;;;23.67;18.30;;;19.00;99.90;;;;;;5047270;28;20959;-73
2022/07/31 01:37:05;;;;;;;24.43;21.30;;;19.00;99.90;;;;;;5068220;28;20545;-74
2022/07/31 01:39:35;;;;;;;24.80;22.10;;;19.10;99.90;;;;;;5054465;28;20468;-73
2022/07/31 01:42:06;;;;;;;26.57;23.70;;;18.90;99.90;;;;;;5071176;28;20468;-74
2022/07/31 01:44:41;;;;;;;22.57;19.47;;;18.90;99.90;;;;;;5072145;28;20466;-73
2022/07/31 01:47:12;;;;;;;27.47;20.17;;;18.90;99.90;;;;;;5060097;28;20478;-73
2022/07/31 01:49:40;;;;;;;25.67;20.50;;;19.00;99.90;;;;;;5072864;28;20541;-73
2022/07/31 01:52:08;;;;;;;25.37;22.63;;;18.90;99.90;;;;;;5072777;28;20457;-74
2022/07/31 01:54:36;;;;;;;31.80;23.00;;;18.90;99.90;;;;;;5068984;28;20480;-75
2022/07/31 01:57:04;;;;;;;23.03;20.70;;;18.90;99.90;;;;;;5071428;28;20449;-74
2022/07/31 01:59:33;;;;;;;23.27;20.87;;;18.80;99.90;;;;;;5071751;28;20999;-73
2022/07/31 02:02:03;;;;;;;24.83;21.67;;;18.80;99.90;;;;;;5060350;28;20534;-74
2022/07/31 02:04:32;;;;;;;30.03;21.40;;;18.70;99.90;;;;;;5072640;28;20515;-74
2022/07/31 02:07:01;;;;;;;24.17;21.60;;;18.70;99.90;;;;;;5065007;28;20910;-74
2022/07/31 02:09:29;;;;;;;27.17;20.40;;;18.70;99.90;;;;;;5069169;28;20648;-73
2022/07/31 02:11:57;;;;;;;22.77;18.80;;;18.60;99.90;;;;;;5071851;28;20467;-73
2022/07/31 02:14:25;;;;;;;21.20;19.07;;;18.70;99.90;;;;;;5070179;28;20503;-74
2022/07/31 02:16:52;;;;;;;20.47;18.43;;;18.70;99.90;;;;;;5063746;28;20466;-74
2022/07/31 02:19:21;;;;;;;21.60;18.67;;;18.70;99.90;;;;;;5068513;28;20963;-74
2022/07/31 02:21:50;;;;;;;18.83;16.93;;;18.60;99.90;;;;;;5071781;28;20593;-73
2022/07/31 02:24:17;;;;;;;20.57;18.23;;;18.60;99.90;;;;;;5062383;28;20540;-73
2022/07/31 02:26:45;;;;;;;21.83;19.30;;;18.70;99.90;;;;;;5072438;28;20473;-74
2022/07/31 02:29:15;;;;;;;27.23;17.80;;;18.60;99.90;;;;;;5061430;28;20441;-74
2022/07/31 02:31:44;;;;;;;23.33;18.80;;;18.70;99.90;;;;;;5071824;28;20532;-73
2022/07/31 02:34:13;;;;;;;18.80;16.77;;;18.60;99.90;;;;;;5071880;28;20481;-75
2022/07/31 02:36:45;;;;;;;24.60;17.57;;;18.60;99.90;;;;;;5072340;28;20437;-74
2022/07/31 02:39:14;;;;;;;16.20;14.63;;;18.70;99.90;;;;;;5072012;28;20939;-74
2022/07/31 02:41:41;;;;;;;18.73;15.13;;;18.70;99.90;;;;;;5072444;28;20566;-75
2022/07/31 02:44:11;;;;;;;19.10;15.17;;;18.80;99.90;;;;;;5078470;28;20479;-74
2022/07/31 02:46:38;;;;;;;21.43;16.53;;;18.80;99.90;;;;;;5071647;28;20476;-74
2022/07/31 02:49:06;;;;;;;20.03;17.90;;;18.90;99.90;;;;;;5070388;28;20461;-74
2022/07/31 02:51:34;;;;;;;18.70;16.23;;;18.80;99.90;;;;;;5070225;28;20855;-74
2022/07/31 02:54:04;;;;;;;16.27;14.07;;;18.90;99.90;;;;;;5069812;28;20469;-75
2022/07/31 02:56:32;;;;;;;17.87;15.30;;;18.90;99.90;;;;;;5074282;28;21119;-75
2022/07/31 02:58:59;;;;;;;20.07;15.23;;;18.90;99.90;;;;;;5072791;28;20971;-73
2022/07/31 03:01:27;;;;;;;18.03;14.67;;;18.90;99.90;;;;;;5065642;28;20450;-73
2022/07/31 03:03:54;;;;;;;21.47;14.77;;;18.90;99.90;;;;;;5066522;28;20557;-73
2022/07/31 03:06:21;;;;;;;15.70;14.17;;;18.90;99.90;;;;;;5073897;28;20577;-73
2022/07/31 03:08:48;;;;;;;13.90;12.57;;;18.90;99.90;;;;;;5074816;28;20932;-74
2022/07/31 03:11:18;;;;;;;17.93;14.90;;;18.90;99.90;;;;;;5074636;28;20463;-74
2022/07/31 03:13:47;;;;;;;15.53;14.03;;;18.80;99.90;;;;;;5065935;28;20471;-73
2022/07/31 03:16:14;;;;;;;16.40;14.73;;;18.90;99.90;;;;;;5066706;28;20466;-73
2022/07/31 03:18:41;;;;;;;19.67;15.20;;;18.90;99.90;;;;;;5062288;28;20459;-74
2022/07/31 03:21:10;;;;;;;15.37;13.77;;;18.90;99.90;;;;;;5074360;28;20453;-74
2022/07/31 03:23:38;;;;;;;17.50;15.90;;;18.80;99.90;;;;;;5071024;28;20475;-74
2022/07/31 03:26:07;;;;;;;21.20;17.47;;;18.80;99.90;;;;;;5072900;28;20507;-73
2022/07/31 03:28:35;;;;;;;21.20;16.40;;;18.80;99.90;;;;;;5071560;28;20568;-74
2022/07/31 03:31:04;;;;;;;16.10;14.47;;;18.70;99.90;;;;;;5072495;28;20939;-73
2022/07/31 03:33:31;;;;;;;18.27;15.37;;;18.70;99.90;;;;;;5072200;28;20476;-73
2022/07/31 03:35:58;;;;;;;17.30;15.40;;;18.70;99.90;;;;;;5061109;28;20452;-74
2022/07/31 03:38:25;;;;;;;17.90;16.00;;;18.70;99.90;;;;;;5064269;28;20445;-74
2022/07/31 03:40:53;;;;;;;18.53;15.10;;;18.70;99.90;;;;;;5060415;28;20551;-73
2022/07/31 03:43:21;;;;;;;17.53;15.67;;;18.70;99.90;;;;;;5072979;28;20475;-73
2022/07/31 03:45:51;;;;;;;17.47;14.30;;;18.70;99.90;;;;;;5069377;28;20453;-74
2022/07/31 03:48:18;;;;;;;16.53;14.13;;;18.70;99.90;;;;;;5062711;28;20516;-73
2022/07/31 03:50:45;;;;;;;17.10;13.70;;;18.70;99.90;;;;;;5072823;28;21240;-73
2022/07/31 03:53:14;;;;;;;20.97;13.33;;;18.70;99.90;;;;;;5062447;28;20472;-72
2022/07/31 03:55:42;;;;;;;16.80;13.27;;;18.70;99.90;;;;;;5075046;28;20532;-72
2022/07/31 03:58:10;;;;;;;18.00;13.87;;;18.70;99.90;;;;;;5073415;28;20452;-75
2022/07/31 04:00:38;;;;;;;17.53;13.47;;;18.70;99.90;;;;;;5065714;28;20532;-73
2022/07/31 04:03:11;;;;;;;15.63;13.70;;;18.70;99.90;;;;;;5060507;28;20552;-72
2022/07/31 04:05:39;;;;;;;13.67;12.40;;;18.70;99.90;;;;;;5061565;28;20809;-74
2022/07/31 04:08:06;;;;;;;15.13;13.30;;;18.80;99.90;;;;;;5064833;28;20490;-73
2022/07/31 04:10:34;;;;;;;14.60;13.10;;;18.80;99.90;;;;;;5067687;28;20438;-74
2022/07/31 04:13:01;;;;;;;14.17;12.87;;;18.80;99.90;;;;;;5069036;28;20477;-74
2022/07/31 04:15:29;;;;;;;14.37;13.00;;;18.70;99.90;;;;;;5073513;28;20987;-74
2022/07/31 04:17:56;;;;;;;14.57;13.07;;;18.70;99.90;;;;;;5068234;28;20521;-72
2022/07/31 04:20:24;;;;;;;15.17;11.93;;;18.70;99.90;;;;;;5070102;28;20480;-72
2022/07/31 04:22:52;;;;;;;16.43;12.23;;;18.70;99.90;;;;;;5080562;28;20514;-73
2022/07/31 04:25:18;;;;;;;12.27;11.00;;;18.60;99.90;;;;;;5073071;28;20529;-74
2022/07/31 04:27:45;;;;;;;14.53;11.30;;;18.70;99.90;;;;;;5068930;28;20569;-73
2022/07/31 04:30:13;;;;;;;13.67;12.23;;;18.70;99.90;;;;;;5061280;28;20460;-74
2022/07/31 04:32:40;;;;;;;13.70;11.13;;;18.70;99.90;;;;;;5068466;28;20441;-73
2022/07/31 04:35:08;;;;;;;12.10;10.87;;;18.80;99.90;;;;;;5073518;28;20462;-76
2022/07/31 04:37:36;;;;;;;10.57;9.67;;;18.80;99.90;;;;;;5069244;28;20449;-73
2022/07/31 04:40:04;;;;;;;10.77;9.67;;;18.80;99.90;;;;;;5058559;28;20442;-74
2022/07/31 04:42:31;;;;;;;9.07;8.17;;;18.90;99.90;;;;;;5071723;28;20484;-74
2022/07/31 04:44:57;;;;;;;11.47;10.47;;;19.00;99.90;;;;;;5074040;28;21031;-74
2022/07/31 04:47:24;;;;;;;10.67;9.57;;;19.00;99.90;;;;;;5064424;28;20489;-72
2022/07/31 04:49:51;;;;;;;9.97;8.97;;;19.10;99.90;;;;;;5065806;28;20493;-74
2022/07/31 04:52:18;;;;;;;10.60;9.60;;;19.10;99.90;;;;;;5061292;28;20457;-72
2022/07/31 04:54:47;;;;;;;12.60;8.93;;;19.20;99.90;;;;;;5061468;28;20541;-72
2022/07/31 04:57:13;;;;;;;8.37;7.57;;;19.20;99.90;;;;;;5066222;28;20953;-72
2022/07/31 04:59:40;;;;;;;10.57;8.03;;;19.30;99.90;;;;;;5071592;28;20826;-72
2022/07/31 05:02:10;;;;;;;11.23;8.77;;;19.30;99.90;;;;;;5065502;28;20456;-73
2022/07/31 05:04:37;;;;;;;8.40;7.60;;;19.40;99.90;;;;;;5068076;28;20471;-73
2022/07/31 05:07:04;;;;;;;8.27;7.30;;;19.60;99.90;;;;;;5065334;28;20504;-74
2022/07/31 05:09:34;;;;;;;7.87;7.17;;;19.60;99.90;;;;;;5066656;28;20814;-73
2022/07/31 05:12:02;;;;;;;7.97;7.27;;;19.60;99.90;;;;;;5071691;28;21324;-73
2022/07/31 05:14:29;;;;;;;9.33;7.93;;;19.50;99.90;;;;;;5055744;28;20911;-73
2022/07/31 05:16:56;;;;;;;8.43;7.63;;;19.50;99.90;;;;;;5070823;28;20540;-72
2022/07/31 05:19:28;;;;;;;9.40;8.60;;;19.70;99.90;;;;;;5063469;28;20446;-73
2022/07/31 05:21:55;;;;;;;11.40;9.90;;;19.80;99.90;;;;;;5057747;28;20445;-73
2022/07/31 05:24:23;;;;;;;13.13;10.70;;;19.70;99.90;;;;;;5066743;28;20545;-73
2022/07/31 05:26:50;;;;;;;12.30;10.77;;;19.80;99.90;;;;;;5059672;28;20468;-75
2022/07/31 05:29:18;;;;;;;10.80;9.73;;;19.80;99.90;;;;;;5056699;28;20530;-72
2022/07/31 05:31:45;;;;;;;11.00;9.20;;;19.90;99.90;;;;;;5053766;28;20900;-73
2022/07/31 05:34:12;;;;;;;10.23;9.23;;;20.00;99.90;;;;;;5067721;28;20563;-73
2022/07/31 05:36:39;;;;;;;10.43;9.50;;;20.10;99.90;;;;;;5054212;28;20495;-73
2022/07/31 05:39:06;;;;;;;8.67;7.87;;;20.50;99.90;;;;;;5057243;28;20492;-73
2022/07/31 05:41:33;;;;;;;10.57;9.10;;;21.00;99.90;;;;;;5053751;28;20464;-72
2022/07/31 05:44:00;;;;;;;9.53;8.60;;;21.50;99.90;;;;;;5054859;28;20469;-72
2022/07/31 05:46:28;;;;;;;9.73;8.40;;;21.60;99.90;;;;;;5053947;28;20441;-73
2022/07/31 05:48:55;;;;;;;12.83;10.10;;;21.90;99.90;;;;;;5053865;28;20480;-74
2022/07/31 05:51:22;;;;;;;10.80;9.47;;;22.20;99.90;;;;;;5063831;28;20466;-73
2022/07/31 05:53:49;;;;;;;10.80;9.70;;;22.20;99.90;;;;;;5062141;28;20469;-75
2022/07/31 05:56:16;;;;;;;9.77;8.00;;;22.40;99.90;;;;;;5054621;28;20495;-73
2022/07/31 05:58:44;;;;;;;7.60;7.00;;;22.60;99.90;;;;;;5064032;28;20450;-73
2022/07/31 06:01:11;;;;;;;9.37;8.47;;;22.30;99.90;;;;;;5054448;28;20454;-73
2022/07/31 06:03:39;;;;;;;8.90;8.10;;;22.30;99.90;;;;;;5071678;28;20465;-73
2022/07/31 06:06:06;;;;;;;8.97;8.13;;;22.30;99.90;;;;;;5072040;28;20759;-73
2022/07/31 06:08:33;;;;;;;11.67;7.07;;;22.20;99.90;;;;;;5071563;28;20476;-72
2022/07/31 06:11:00;;;;;;;9.87;6.53;;;22.30;99.90;;;;;;5064407;28;20807;-71
2022/07/31 06:13:29;;;;;;;9.47;6.20;;;22.50;99.90;;;;;;5067869;28;20496;-72
2022/07/31 06:15:57;;;;;;;9.10;8.17;;;22.70;99.90;;;;;;5060866;28;20540;-74
2022/07/31 06:18:24;;;;;;;11.33;5.40;;;23.10;99.90;;;;;;5070869;28;20450;-72
2022/07/31 06:20:54;;;;;;;7.43;5.40;;;23.30;99.90;;;;;;5074899;28;20477;-70
2022/07/31 06:23:22;;;;;;;9.30;6.17;;;23.50;99.90;;;;;;5070520;28;20460;-71
2022/07/31 06:25:49;;;;;;;6.40;5.80;;;23.50;99.90;;;;;;5058843;28;20506;-71
2022/07/31 06:28:16;;;;;;;6.60;6.00;;;23.30;99.90;;;;;;5064193;28;20469;-71
2022/07/31 06:30:43;;;;;;;10.00;5.63;;;22.90;99.90;;;;;;5067969;28;20445;-72
2022/07/31 06:33:10;;;;;;;7.17;5.90;;;22.90;99.90;;;;;;5026058;28;1126803;-71
2022/07/31 06:35:37;;;;;;;5.43;4.90;;;22.70;99.90;;;;;;5068548;28;20440;-73
2022/07/31 06:38:05;;;;;;;5.73;5.23;;;22.70;99.90;;;;;;5068243;28;20531;-72
2022/07/31 06:40:32;;;;;;;5.83;4.43;;;22.30;99.90;;;;;;5061740;28;20444;-72
2022/07/31 06:42:59;;;;;;;6.37;4.10;;;22.40;99.90;;;;;;5063314;28;20468;-70
2022/07/31 06:45:26;;;;;;;7.07;4.80;;;22.30;99.90;;;;;;5069291;28;20452;-70
2022/07/31 06:47:53;;;;;;;11.27;5.07;;;22.40;99.90;;;;;;5072168;28;20488;-69
2022/07/31 06:50:20;;;;;;;8.00;5.33;;;22.30;99.90;;;;;;5059613;28;20475;-70
2022/07/31 06:52:48;;;;;;;5.70;5.17;;;22.20;99.90;;;;;;5074958;28;20945;-69
2022/07/31 06:55:16;;;;;;;5.50;4.90;;;22.10;99.90;;;;;;5064679;28;20460;-70
2022/07/31 06:57:43;;;;;;;9.60;6.37;;;22.30;99.90;;;;;;5062646;28;20792;-69
2022/07/31 07:00:11;;;;;;;7.33;5.23;;;22.40;99.90;;;;;;5072542;28;20953;-71
2022/07/31 07:02:38;;;;;;;12.17;4.77;;;22.50;99.90;;;;;;5069785;28;20457;-69
2022/07/31 07:05:06;;;;;;;7.90;4.23;;;22.60;99.90;;;;;;5074598;28;20803;-72
2022/07/31 07:07:35;;;;;;;8.77;3.93;;;22.90;99.90;;;;;;5071712;28;20452;-71
2022/07/31 07:10:02;;;;;;;5.57;4.43;;;22.90;99.90;;;;;;5058091;28;20450;-70
2022/07/31 07:12:30;;;;;;;6.03;4.60;;;22.90;99.90;;;;;;5056298;28;20481;-71
2022/07/31 07:14:57;;;;;;;5.17;4.33;;;23.00;99.90;;;;;;5067442;28;20473;-71
2022/07/31 07:17:24;;;;;;;4.50;3.27;;;23.00;99.90;;;;;;5058600;28;20517;-71
2022/07/31 07:19:51;;;;;;;6.77;5.70;;;23.00;99.90;;;;;;5056989;28;20449;-70
2022/07/31 07:22:18;;;;;;;5.00;4.37;;;23.10;99.90;;;;;;5069044;28;20469;-70
2022/07/31 07:24:45;;;;;;;12.43;4.47;;;23.20;99.90;;;;;;5066905;28;20534;-68
2022/07/31 07:27:12;;;;;;;5.57;4.00;;;23.20;99.90;;;;;;5070955;28;20445;-72
2022/07/31 07:29:43;;;;;;;5.17;4.30;;;23.40;99.90;;;;;;5062703;28;20524;-70
2022/07/31 07:32:12;;;;;;;6.50;4.50;;;23.40;99.90;;;;;;5072403;28;20453;-71
2022/07/31 07:34:38;;;;;;;6.40;4.70;;;23.40;99.90;;;;;;5064714;28;20483;-73
2022/07/31 07:37:05;;;;;;;5.40;4.90;;;23.30;99.90;;;;;;5066402;28;20459;-71
2022/07/31 07:39:32;;;;;;;7.30;4.43;;;23.20;99.90;;;;;;5068728;28;20443;-70
2022/07/31 07:41:59;;;;;;;4.73;4.33;;;23.30;99.90;;;;;;5071029;28;20445;-70
2022/07/31 07:44:28;;;;;;;4.07;3.67;;;23.40;99.90;;;;;;5069872;28;20461;-70
2022/07/31 07:46:56;;;;;;;5.73;4.80;;;23.50;99.90;;;;;;5077250;28;20479;-71
2022/07/31 07:49:23;;;;;;;6.67;4.93;;;23.50;99.90;;;;;;5076491;28;20559;-71
2022/07/31 07:51:51;;;;;;;7.43;4.60;;;23.50;99.90;;;;;;5071667;28;20754;-71
2022/07/31 07:54:18;;;;;;;5.90;4.60;;;23.30;99.90;;;;;;5066879;28;20465;-70
2022/07/31 07:56:45;;;;;;;6.70;5.43;;;23.30;99.90;;;;;;5068754;28;20537;-70
2022/07/31 07:59:12;;;;;;;10.07;5.20;;;23.20;99.90;;;;;;5050463;28;20509;-69
2022/07/31 08:01:39;;;;;;;9.17;4.30;;;23.20;99.90;;;;;;5073591;28;20453;-71
2022/07/31 08:04:07;;;;;;;7.80;5.00;;;23.30;99.90;;;;;;5066341;28;20465;-70
2022/07/31 08:06:34;;;;;;;7.23;4.80;;;23.40;99.90;;;;;;5069464;28;20533;-70
2022/07/31 08:09:01;;;;;;;3.63;3.30;;;23.60;99.90;;;;;;5062065;28;20476;-70
2022/07/31 08:11:28;;;;;;;5.53;3.60;;;24.00;99.90;;;;;;5062277;28;20458;-72
2022/07/31 08:13:55;;;;;;;3.80;2.57;;;24.10;99.90;;;;;;5068413;28;20501;-69
2022/07/31 08:16:23;;;;;;;3.93;3.50;;;24.40;99.90;;;;;;5061278;28;20529;-69
2022/07/31 08:18:51;;;;;;;5.30;2.60;;;24.60;98.80;;;;;;5071478;28;20524;-71
2022/07/31 08:21:20;;;;;;;3.77;2.83;;;24.70;97.70;;;;;;5068906;28;20458;-70
2022/07/31 08:23:47;;;;;;;4.00;3.40;;;24.90;97.40;;;;;;5057168;28;20558;-71
2022/07/31 08:26:14;;;;;;;4.50;2.50;;;25.40;96.10;;;;;;5055013;28;20444;-71
2022/07/31 08:28:41;;;;;;;4.33;2.80;;;25.70;94.80;;;;;;5068916;28;20469;-70
2022/07/31 08:31:08;;;;;;;4.43;2.40;;;26.00;94.30;;;;;;5067406;28;20532;-71
2022/07/31 08:33:35;;;;;;;3.80;2.83;;;26.70;92.70;;;;;;5060871;28;20845;-71
2022/07/31 08:36:03;;;;;;;4.27;2.73;;;27.30;91.50;;;;;;5064971;28;20453;-71
2022/07/31 08:38:31;;;;;;;5.47;2.97;;;27.60;91.10;;;;;;5061723;28;20442;-70
2022/07/31 08:40:58;;;;;;;6.10;2.30;;;28.00;89.40;;;;;;5064277;28;20456;-70
2022/07/31 08:43:26;;;;;;;3.73;2.43;;;28.20;88.80;;;;;;5063122;28;20983;-71
2022/07/31 08:45:53;;;;;;;3.53;2.80;;;27.60;87.20;;;;;;5062107;28;20943;-69
2022/07/31 08:48:24;;;;;;;2.97;2.37;;;27.50;88.80;;;;;;5063059;28;20561;-70
2022/07/31 08:50:53;;;;;;;2.70;2.50;;;27.60;89.20;;;;;;5061977;28;20454;-75
2022/07/31 08:53:23;;;;;;;3.37;2.30;;;27.60;89.00;;;;;;5059406;28;21048;-75
2022/07/31 08:56:18;;;;;;;6.10;2.60;;;28.20;88.20;;;;;;5047239;28;20445;-73
2022/07/31 08:58:55;;;;;;;6.60;2.60;;;29.00;84.70;;;;;;5068634;28;20457;-72
2022/07/31 09:01:28;;;;;;;3.73;2.33;;;29.00;84.60;;;;;;5065063;28;20436;-74
2022/07/31 09:03:57;;;;;;;3.77;2.60;;;29.00;83.90;;;;;;5065368;28;21038;-74
2022/07/31 09:06:30;;;;;;;3.73;2.70;;;28.70;84.10;;;;;;5062152;28;20469;-74
2022/07/31 09:08:59;;;;;;;6.27;2.50;;;28.40;84.00;;;;;;5063820;28;20861;-73
2022/07/31 09:11:27;;;;;;;6.17;3.20;;;28.30;85.40;;;;;;5064653;28;20449;-74
2022/07/31 09:13:55;;;;;;;4.10;2.90;;;28.00;86.30;;;;;;5062070;28;20562;-73
2022/07/31 09:16:24;;;;;;;12.30;2.70;;;28.10;86.70;;;;;;5069051;28;20874;-73
2022/07/31 09:18:58;;;;;;;6.17;2.80;;;28.10;85.60;;;;;;5071742;28;20575;-75
2022/07/31 09:21:38;;;;;;;5.63;2.33;;;28.30;86.20;;;;;;5067076;28;20451;-74
2022/07/31 09:24:06;;;;;;;2.97;2.70;;;28.20;85.10;;;;;;5067877;28;20480;-73
2022/07/31 09:26:36;;;;;;;3.37;2.90;;;28.10;85.20;;;;;;5068348;28;20441;-74
2022/07/31 09:29:07;;;;;;;3.13;2.80;;;28.30;84.70;;;;;;5070776;28;20526;-74
2022/07/31 09:31:35;;;;;;;6.23;2.80;;;28.00;85.10;;;;;;5057620;28;20438;-74
2022/07/31 09:34:02;;;;;;;5.63;2.97;;;27.30;86.40;;;;;;5066897;28;20496;-74
2022/07/31 09:36:29;;;;;;;3.60;2.77;;;27.30;87.30;;;;;;5067633;28;20540;-74
2022/07/31 09:38:57;;;;;;;3.10;2.80;;;27.30;88.20;;;;;;5056183;28;20482;-74
2022/07/31 09:41:25;;;;;;;5.60;3.60;;;27.20;88.50;;;;;;5057719;28;20454;-75
2022/07/31 09:43:58;;;;;;;5.07;2.80;;;27.20;88.30;;;;;;5065011;28;20570;-74
2022/07/31 09:46:26;;;;;;;4.30;2.40;;;26.80;88.70;;;;;;5057672;28;20450;-72
2022/07/31 09:48:55;;;;;;;7.10;3.37;;;27.00;89.10;;;;;;5061126;28;20538;-72
2022/07/31 09:51:22;;;;;;;3.43;3.00;;;27.10;89.00;;;;;;5061728;28;20450;-73
2022/07/31 09:53:52;;;;;;;6.30;2.80;;;26.90;89.30;;;;;;5060691;28;20549;-73
2022/07/31 09:56:29;;;;;;;5.00;3.90;;;26.50;89.80;;;;;;5062838;28;20473;-74
2022/07/31 09:58:58;;;;;;;8.03;3.63;;;26.40;90.40;;;;;;5063847;28;20480;-74
2022/07/31 10:01:26;;;;;;;5.93;3.37;;;26.40;90.90;;;;;;5065572;28;20919;-72
2022/07/31 10:03:55;;;;;;;3.77;3.10;;;26.40;90.80;;;;;;5063809;28;20477;-72
2022/07/31 10:06:24;;;;;;;5.20;3.27;;;26.60;90.60;;;;;;5063517;28;20541;-71
2022/07/31 10:08:52;;;;;;;5.60;3.53;;;26.60;90.60;;;;;;5057689;28;20487;-73
2022/07/31 10:11:21;;;;;;;4.77;2.30;;;26.80;90.70;;;;;;5054953;28;20532;-73
2022/07/31 10:13:50;;;;;;;4.73;2.83;;;27.00;90.80;;;;;;5067368;28;20534;-72
2022/07/31 10:16:21;;;;;;;5.10;3.20;;;27.20;90.70;;;;;;5058976;28;20442;-73
2022/07/31 10:18:53;;;;;;;3.47;2.40;;;27.20;90.80;;;;;;5064542;28;20801;-73
2022/07/31 10:21:27;;;;;;;7.93;5.53;;;27.20;90.70;;;;;;5059292;28;20450;-72
2022/07/31 10:23:56;;;;;;;28.47;25.87;;;27.20;90.40;;;;;;5040496;28;20963;-74
2022/07/31 10:26:23;;;;;;;324.77;162.30;;;27.30;90.40;;;;;;5054711;28;20540;-72
2022/07/31 10:28:50;;;;;;;480.10;190.50;;;27.40;89.70;;;;;;5055687;28;20899;-73
2022/07/31 10:31:18;;;;;;;830.77;528.47;;;27.50;89.70;;;;;;5052795;28;20446;-73
2022/07/31 10:33:46;;;;;;;258.63;195.00;;;27.80;88.30;;;;;;5064605;28;20477;-73
2022/07/31 10:36:19;;;;;;;25.20;17.60;;;27.80;87.20;;;;;;5062195;28;20476;-72
2022/07/31 10:38:54;;;;;;;110.50;75.70;;;27.90;86.50;;;;;;5067727;28;20521;-74
2022/07/31 10:41:30;;;;;;;231.93;143.60;;;28.00;86.60;;;;;;5051347;28;20524;-72
2022/07/31 10:44:03;;;;;;;16.10;12.10;;;28.20;86.10;;;;;;5061594;28;20509;-73
2022/07/31 10:46:33;;;;;;;36.23;22.83;;;28.50;84.70;;;;;;5067912;28;20501;-72
2022/07/31 10:49:00;;;;;;;18.70;11.80;;;28.30;84.60;;;;;;5071910;28;20489;-73
2022/07/31 10:51:27;;;;;;;14.63;8.80;;;28.20;84.90;;;;;;5067479;28;20560;-72
2022/07/31 10:53:56;;;;;;;25.57;17.90;;;28.20;84.70;;;;;;5064510;28;20819;-73
2022/07/31 10:56:23;;;;;;;32.97;20.90;;;28.00;85.60;;;;;;5063960;28;20430;-74
2022/07/31 10:58:51;;;;;;;19.67;12.33;;;28.20;85.80;;;;;;5062923;28;20448;-72
2022/07/31 11:01:19;;;;;;;17.03;11.00;;;28.30;86.10;;;;;;5067628;28;21014;-72
2022/07/31 11:03:49;;;;;;;9.70;7.63;;;28.60;86.00;;;;;;5061925;28;20516;-73
2022/07/31 11:06:17;;;;;;;27.67;18.17;;;28.60;84.90;;;;;;5058253;28;20469;-72
2022/07/31 11:08:45;;;;;;;16.07;8.93;;;28.90;84.70;;;;;;5070669;28;20918;-72
2022/07/31 11:11:13;;;;;;;41.23;30.43;;;28.90;85.40;;;;;;5066664;28;20449;-73
2022/07/31 11:13:51;;;;;;;24.60;17.03;;;29.10;84.30;;;;;;5059825;28;20540;-72
2022/07/31 11:16:19;;;;;;;5.53;3.60;;;29.30;84.40;;;;;;5057117;28;20533;-72
2022/07/31 11:18:58;;;;;;;6.73;4.93;;;29.20;83.10;;;;;;5070448;28;20449;-72
2022/07/31 11:21:34;;;;;;;6.50;4.47;;;28.90;83.50;;;;;;5071143;28;20547;-73
2022/07/31 11:24:01;;;;;;;9.30;4.93;;;29.20;83.50;;;;;;5061222;28;20493;-73
2022/07/31 11:26:28;;;;;;;30.40;14.93;;;28.90;83.90;;;;;;5059139;28;20588;-73
2022/07/31 11:28:55;;;;;;;11.87;6.77;;;29.10;84.00;;;;;;5069248;28;20494;-73
2022/07/31 11:31:29;;;;;;;26.07;10.93;;;29.10;84.10;;;;;;5062064;28;20444;-73
2022/07/31 11:34:02;;;;;;;10.70;6.03;;;29.30;84.40;;;;;;5068435;28;20518;-73
2022/07/31 11:36:29;;;;;;;10.60;5.90;;;29.40;84.60;;;;;;5059891;28;20446;-73
2022/07/31 11:38:56;;;;;;;11.23;5.83;;;29.20;84.00;;;;;;5060026;28;20532;-73
2022/07/31 11:41:28;;;;;;;4.13;3.77;;;29.10;83.60;;;;;;5058183;28;20450;-72
2022/07/31 11:43:56;;;;;;;4.87;3.97;;;28.80;84.10;;;;;;5059508;28;20545;-72
2022/07/31 11:46:25;;;;;;;6.90;3.60;;;28.40;84.70;;;;;;5060629;28;20477;-73
2022/07/31 11:48:53;;;;;;;5.17;4.00;;;28.20;85.10;;;;;;5060089;28;20903;-72
2022/07/31 11:51:21;;;;;;;4.17;3.77;;;28.00;86.00;;;;;;5065643;28;20535;-72
2022/07/31 11:53:49;;;;;;;4.00;3.60;;;27.80;86.50;;;;;;5066998;28;20469;-73
2022/07/31 11:56:17;;;;;;;7.00;3.77;;;27.90;86.40;;;;;;5064336;28;20544;-73
2022/07/31 11:58:47;;;;;;;4.50;2.90;;;27.80;86.60;;;;;;5060505;28;20446;-73
2022/07/31 12:01:14;;;;;;;5.80;3.73;;;27.30;87.70;;;;;;5064509;28;20453;-73
2022/07/31 12:03:41;;;;;;;4.53;3.20;;;27.20;88.30;;;;;;5060761;28;20995;-74
2022/07/31 12:06:10;;;;;;;7.70;4.60;;;27.00;88.30;;;;;;5068451;28;20457;-72
2022/07/31 12:08:40;;;;;;;3.50;3.20;;;27.10;88.70;;;;;;5063995;28;20521;-72
2022/07/31 12:11:08;;;;;;;4.17;3.20;;;27.10;88.30;;;;;;5066462;28;20859;-72
2022/07/31 12:13:35;;;;;;;5.63;3.47;;;27.00;88.10;;;;;;5068767;28;20573;-73
2022/07/31 12:16:04;;;;;;;11.80;4.57;;;26.90;88.60;;;;;;5058404;28;20549;-75
2022/07/31 12:18:45;;;;;;;8.57;3.40;;;26.80;89.00;;;;;;5063126;28;20465;-73
2022/07/31 12:21:12;;;;;;;4.83;3.83;;;26.60;89.20;;;;;;5057335;28;20450;-73
2022/07/31 12:23:42;;;;;;;4.27;3.83;;;26.60;90.10;;;;;;5062677;28;20510;-73
2022/07/31 12:26:12;;;;;;;4.03;3.30;;;26.50;90.20;;;;;;5055666;28;20812;-74
2022/07/31 12:28:40;;;;;;;4.53;3.13;;;26.40;90.20;;;;;;5062819;28;20452;-73
2022/07/31 12:31:07;;;;;;;3.60;3.30;;;26.40;90.30;;;;;;5065339;28;20505;-73
2022/07/31 12:33:44;;;;;;;6.37;3.80;;;26.40;90.30;;;;;;5072728;28;20838;-74
2022/07/31 12:36:16;;;;;;;4.53;3.10;;;26.40;90.40;;;;;;5067420;28;20452;-73
2022/07/31 12:38:45;;;;;;;3.90;3.60;;;26.40;90.70;;;;;;5063960;28;20537;-74
2022/07/31 12:41:12;;;;;;;8.50;3.87;;;26.30;91.90;;;;;;5074344;28;20562;-73
2022/07/31 12:43:40;;;;;;;6.70;4.20;;;26.00;92.50;;;;;;5062973;28;20467;-77